Airfield :
LOGIN :

Register | Disclaimer

   EN    FR    IT 

 










Legend :    VFR   Marginal VFR   IFR   Intensive IFR   Very Intensive IFR
Visi :
Ceiling :
>= 8 km
>= 3000ft
5 to 8 km
1000 to 3000 ft
1500m to 5 km
500 to 1000 ft
800 to 1500m
200 to 500 ft
< 800m
< 200 ft
Symbols :   Thunderstorms  Fog  Heavy snow  Heavy precipitations  Wind > 20 kt
SIGMETs :     Misc.  Thunderstorms  Icing  Turbulence  Mountain Waves  Volcanic Ashes






- Airport Elevation : 433 ft
- IATA code : CCF


LFMK - Carcassonne

CURRENT METAR :
  • 280830Z AUTO 27013KT 9999 OVC014 13/11 Q1020 BECMG 28015G27KT

EXPIRED METARs :
  • 280800Z AUTO 27013KT 9999 FEW013 SCT019 OVC031 13/11 Q1020 TEMPO BKN012 BKN020 BECMG 28015G27KT
  • 280730Z AUTO 27012KT 9999 FEW013 BKN029 12/11 Q1020 BECMG 28015G27KT
  • 280700Z AUTO 27011KT 9999 BKN013 BKN044 BKN062 13/11 Q1020 BECMG 28015G27KT BKN017 BKN025
  • 280630Z AUTO 27010KT 9999 BKN015 OVC038 13/11 Q1020 BECMG 28015G27KT
  • 280600Z AUTO 27010KT 9999 BKN015 OVC020 13/11 Q1020 TEMPO 4000 BR OVC010 BKN020 BECMG 28015G27KT

TAF TAF LFMK
Valid from the 28 at 09:00 until the 29 at 09:00 UTC


280800Z 2809/2909 27012KT 9999 BKN030
TEMPO 2809/2812 BKN015 BKN030
TEMPO 2809/2815 28015G25KT
TEMPO 2902/2909 RA BKN012 BKN020



MET'MAP, your aeronautical weather chart ! - Copyright ORBIFLY December 2007 - Disclaimer

ORBIFLY MET'MAP TEAM :

Programming & Development : Alexandra Zaïnal
Concept & original design : Baudouin d'Aumeries
Assistance for programming : Marc-Olivier Méhu
Technical & hardware support : Manuel Goepfert

Contact : metmap@orbifly.com




SOURCES & CREDITS :

   NOAA